Aviation Digital Data Service (ADDS)

Output produced by METARs form (1130 UTC 24 April 2014)
found at http://www.aviationweather.gov/adds/metars/
 
KLNS 241053Z 28006KT 10SM CLR 02/M07 A3004 RMK AO2 SLP174 T00171067
KLNS 241123Z 2412/2512 29009KT P6SM SKC 
     FM241400 31016G26KT P6SM SKC 
     FM250000 34005KT P6SM SKC